sensor_id;sensor_type;location;lat;lon;timestamp;temperature;humidity
72440;DHT22;60446;50.752;4.352;2023-11-18T00:01:53;4.50;99.90
72440;DHT22;60446;50.752;4.352;2023-11-18T00:04:20;4.60;99.90
72440;DHT22;60446;50.752;4.352;2023-11-18T00:06:47;4.70;99.90
72440;DHT22;60446;50.752;4.352;2023-11-18T00:09:14;4.60;99.90
72440;DHT22;60446;50.752;4.352;2023-11-18T00:11:42;4.70;99.90
72440;DHT22;60446;50.752;4.352;2023-11-18T00:14:09;4.70;99.90
72440;DHT22;60446;50.752;4.352;2023-11-18T00:16:40;4.70;99.90
72440;DHT22;60446;50.752;4.352;2023-11-18T00:19:08;4.70;99.90
72440;DHT22;60446;50.752;4.352;2023-11-18T00:21:36;4.70;99.90
72440;DHT22;60446;50.752;4.352;2023-11-18T00:24:04;4.60;99.90
72440;DHT22;60446;50.752;4.352;2023-11-18T00:26:32;4.60;99.90
72440;DHT22;60446;50.752;4.352;2023-11-18T00:29:00;4.60;99.90
72440;DHT22;60446;50.752;4.352;2023-11-18T00:31:30;4.60;99.90
72440;DHT22;60446;50.752;4.352;2023-11-18T00:33:57;4.60;99.90
72440;DHT22;60446;50.752;4.352;2023-11-18T00:36:24;4.70;99.90
72440;DHT22;60446;50.752;4.352;2023-11-18T00:38:53;4.80;99.90
72440;DHT22;60446;50.752;4.352;2023-11-18T00:41:20;4.70;99.90
72440;DHT22;60446;50.752;4.352;2023-11-18T00:43:48;4.70;99.90
72440;DHT22;60446;50.752;4.352;2023-11-18T00:46:15;4.70;99.90
72440;DHT22;60446;50.752;4.352;2023-11-18T00:48:43;4.80;99.90
72440;DHT22;60446;50.752;4.352;2023-11-18T00:51:11;4.80;99.90
72440;DHT22;60446;50.752;4.352;2023-11-18T00:53:38;4.80;99.90
72440;DHT22;60446;50.752;4.352;2023-11-18T00:56:06;4.80;99.90
72440;DHT22;60446;50.752;4.352;2023-11-18T00:58:36;4.80;99.90
72440;DHT22;60446;50.752;4.352;2023-11-18T01:01:07;4.80;99.90
72440;DHT22;60446;50.752;4.352;2023-11-18T01:03:34;4.80;99.90
72440;DHT22;60446;50.752;4.352;2023-11-18T01:06:01;4.90;99.90
72440;DHT22;60446;50.752;4.352;2023-11-18T01:08:29;4.90;99.90
72440;DHT22;60446;50.752;4.352;2023-11-18T01:10:57;4.90;99.90
72440;DHT22;60446;50.752;4.352;2023-11-18T01:13:24;4.90;99.90
72440;DHT22;60446;50.752;4.352;2023-11-18T01:15:53;4.90;99.90
72440;DHT22;60446;50.752;4.352;2023-11-18T01:18:20;4.90;99.90
72440;DHT22;60446;50.752;4.352;2023-11-18T01:20:48;4.90;99.90
72440;DHT22;60446;50.752;4.352;2023-11-18T01:23:16;5.00;99.90
72440;DHT22;60446;50.752;4.352;2023-11-18T01:25:44;5.00;99.90
72440;DHT22;60446;50.752;4.352;2023-11-18T01:28:11;5.10;99.90
72440;DHT22;60446;50.752;4.352;2023-11-18T01:30:38;5.00;99.90
72440;DHT22;60446;50.752;4.352;2023-11-18T01:33:05;5.00;99.90
72440;DHT22;60446;50.752;4.352;2023-11-18T01:35:33;5.00;99.90
72440;DHT22;60446;50.752;4.352;2023-11-18T01:38:00;5.00;99.90
72440;DHT22;60446;50.752;4.352;2023-11-18T01:40:27;5.00;99.90
72440;DHT22;60446;50.752;4.352;2023-11-18T01:42:57;5.00;99.90
72440;DHT22;60446;50.752;4.352;2023-11-18T01:45:25;5.10;99.90
72440;DHT22;60446;50.752;4.352;2023-11-18T01:47:54;5.00;99.90
72440;DHT22;60446;50.752;4.352;2023-11-18T01:50:22;5.00;99.90
72440;DHT22;60446;50.752;4.352;2023-11-18T01:52:49;5.00;99.90
72440;DHT22;60446;50.752;4.352;2023-11-18T01:55:17;5.00;99.90
72440;DHT22;60446;50.752;4.352;2023-11-18T01:57:45;5.00;99.90
72440;DHT22;60446;50.752;4.352;2023-11-18T02:00:12;5.00;99.90
72440;DHT22;60446;50.752;4.352;2023-11-18T02:02:45;5.00;99.90
72440;DHT22;60446;50.752;4.352;2023-11-18T02:05:12;5.00;99.90
72440;DHT22;60446;50.752;4.352;2023-11-18T02:07:40;5.00;99.90
72440;DHT22;60446;50.752;4.352;2023-11-18T02:10:08;5.10;99.90
72440;DHT22;60446;50.752;4.352;2023-11-18T02:12:57;5.10;99.90
72440;DHT22;60446;50.752;4.352;2023-11-18T02:15:34;5.10;99.90
72440;DHT22;60446;50.752;4.352;2023-11-18T02:18:03;5.00;99.90
72440;DHT22;60446;50.752;4.352;2023-11-18T02:20:33;5.10;99.90
72440;DHT22;60446;50.752;4.352;2023-11-18T02:23:01;5.10;99.90
72440;DHT22;60446;50.752;4.352;2023-11-18T02:25:32;5.10;99.90
72440;DHT22;60446;50.752;4.352;2023-11-18T02:28:01;5.00;99.90
72440;DHT22;60446;50.752;4.352;2023-11-18T02:30:28;5.10;99.90
72440;DHT22;60446;50.752;4.352;2023-11-18T02:33:05;5.00;99.90
72440;DHT22;60446;50.752;4.352;2023-11-18T02:35:51;5.00;99.90
72440;DHT22;60446;50.752;4.352;2023-11-18T02:38:22;4.90;99.90
72440;DHT22;60446;50.752;4.352;2023-11-18T02:40:58;5.00;99.90
72440;DHT22;60446;50.752;4.352;2023-11-18T02:43:28;5.00;99.90
72440;DHT22;60446;50.752;4.352;2023-11-18T02:45:58;5.00;99.90
72440;DHT22;60446;50.752;4.352;2023-11-18T02:48:26;5.00;99.90
72440;DHT22;60446;50.752;4.352;2023-11-18T02:50:56;5.10;99.90
72440;DHT22;60446;50.752;4.352;2023-11-18T02:53:23;5.10;99.90
72440;DHT22;60446;50.752;4.352;2023-11-18T02:55:51;5.00;99.90
72440;DHT22;60446;50.752;4.352;2023-11-18T02:58:19;5.10;99.90
72440;DHT22;60446;50.752;4.352;2023-11-18T03:00:47;5.10;99.90
72440;DHT22;60446;50.752;4.352;2023-11-18T03:03:15;5.10;99.90
72440;DHT22;60446;50.752;4.352;2023-11-18T03:05:43;5.10;99.90
72440;DHT22;60446;50.752;4.352;2023-11-18T03:08:12;5.20;99.90
72440;DHT22;60446;50.752;4.352;2023-11-18T03:10:40;5.20;99.90
72440;DHT22;60446;50.752;4.352;2023-11-18T03:13:11;5.20;99.90
72440;DHT22;60446;50.752;4.352;2023-11-18T03:15:41;5.10;99.90
72440;DHT22;60446;50.752;4.352;2023-11-18T03:18:09;5.10;99.90
72440;DHT22;60446;50.752;4.352;2023-11-18T03:20:36;5.10;99.90
72440;DHT22;60446;50.752;4.352;2023-11-18T03:23:04;5.10;99.90
72440;DHT22;60446;50.752;4.352;2023-11-18T03:25:35;5.20;99.90
72440;DHT22;60446;50.752;4.352;2023-11-18T03:28:02;5.20;99.90
72440;DHT22;60446;50.752;4.352;2023-11-18T03:30:32;5.20;99.90
72440;DHT22;60446;50.752;4.352;2023-11-18T03:33:00;5.30;99.90
72440;DHT22;60446;50.752;4.352;2023-11-18T03:35:27;5.30;99.90
72440;DHT22;60446;50.752;4.352;2023-11-18T03:37:55;5.30;99.90
72440;DHT22;60446;50.752;4.352;2023-11-18T03:40:22;5.30;99.90
72440;DHT22;60446;50.752;4.352;2023-11-18T03:42:50;5.30;99.90
72440;DHT22;60446;50.752;4.352;2023-11-18T03:45:17;5.40;99.90
72440;DHT22;60446;50.752;4.352;2023-11-18T03:47:45;5.40;99.90
72440;DHT22;60446;50.752;4.352;2023-11-18T03:50:13;5.40;99.90
72440;DHT22;60446;50.752;4.352;2023-11-18T03:52:41;5.50;99.90
72440;DHT22;60446;50.752;4.352;2023-11-18T03:55:08;5.50;99.90
72440;DHT22;60446;50.752;4.352;2023-11-18T03:57:36;5.50;99.90
72440;DHT22;60446;50.752;4.352;2023-11-18T04:00:03;5.50;99.90
72440;DHT22;60446;50.752;4.352;2023-11-18T04:02:39;5.50;99.90
72440;DHT22;60446;50.752;4.352;2023-11-18T04:05:08;5.50;99.90
72440;DHT22;60446;50.752;4.352;2023-11-18T04:07:36;5.50;99.90
72440;DHT22;60446;50.752;4.352;2023-11-18T04:10:03;5.60;99.90
72440;DHT22;60446;50.752;4.352;2023-11-18T04:12:34;5.60;99.90
72440;DHT22;60446;50.752;4.352;2023-11-18T04:15:01;5.50;99.90
72440;DHT22;60446;50.752;4.352;2023-11-18T04:17:28;5.60;99.90
72440;DHT22;60446;50.752;4.352;2023-11-18T04:19:56;5.60;99.90
72440;DHT22;60446;50.752;4.352;2023-11-18T04:22:23;5.60;99.90
72440;DHT22;60446;50.752;4.352;2023-11-18T04:24:51;5.70;99.90
72440;DHT22;60446;50.752;4.352;2023-11-18T04:27:18;5.70;99.90
72440;DHT22;60446;50.752;4.352;2023-11-18T04:29:45;5.70;99.90
72440;DHT22;60446;50.752;4.352;2023-11-18T04:32:13;5.60;99.90
72440;DHT22;60446;50.752;4.352;2023-11-18T04:34:41;5.70;99.90
72440;DHT22;60446;50.752;4.352;2023-11-18T04:37:09;5.80;99.90
72440;DHT22;60446;50.752;4.352;2023-11-18T04:39:36;5.70;99.90
72440;DHT22;60446;50.752;4.352;2023-11-18T04:42:04;5.80;99.90
72440;DHT22;60446;50.752;4.352;2023-11-18T04:44:31;5.80;99.90
72440;DHT22;60446;50.752;4.352;2023-11-18T04:46:59;5.80;99.90
72440;DHT22;60446;50.752;4.352;2023-11-18T04:49:26;5.90;99.90
72440;DHT22;60446;50.752;4.352;2023-11-18T04:51:54;5.80;99.90
72440;DHT22;60446;50.752;4.352;2023-11-18T04:54:22;5.90;99.90
72440;DHT22;60446;50.752;4.352;2023-11-18T04:56:49;5.90;99.90
72440;DHT22;60446;50.752;4.352;2023-11-18T04:59:16;6.00;99.90
72440;DHT22;60446;50.752;4.352;2023-11-18T05:01:44;6.00;99.90
72440;DHT22;60446;50.752;4.352;2023-11-18T05:04:13;6.00;99.90
72440;DHT22;60446;50.752;4.352;2023-11-18T05:06:40;5.90;99.90
72440;DHT22;60446;50.752;4.352;2023-11-18T05:09:07;5.90;99.90
72440;DHT22;60446;50.752;4.352;2023-11-18T05:11:34;6.00;99.90
72440;DHT22;60446;50.752;4.352;2023-11-18T05:14:02;6.00;99.90
72440;DHT22;60446;50.752;4.352;2023-11-18T05:16:30;6.10;99.90
72440;DHT22;60446;50.752;4.352;2023-11-18T05:18:58;6.10;99.90
72440;DHT22;60446;50.752;4.352;2023-11-18T05:21:25;6.10;99.90
72440;DHT22;60446;50.752;4.352;2023-11-18T05:23:52;6.00;99.90
72440;DHT22;60446;50.752;4.352;2023-11-18T05:26:20;6.10;99.90
72440;DHT22;60446;50.752;4.352;2023-11-18T05:28:47;6.10;99.90
72440;DHT22;60446;50.752;4.352;2023-11-18T05:31:16;6.10;99.90
72440;DHT22;60446;50.752;4.352;2023-11-18T05:33:45;6.10;99.90
72440;DHT22;60446;50.752;4.352;2023-11-18T05:36:18;6.20;99.90
72440;DHT22;60446;50.752;4.352;2023-11-18T05:38:54;6.20;99.90
72440;DHT22;60446;50.752;4.352;2023-11-18T05:41:21;6.20;99.90
72440;DHT22;60446;50.752;4.352;2023-11-18T05:43:57;6.20;99.90
72440;DHT22;60446;50.752;4.352;2023-11-18T05:46:25;6.20;99.90
72440;DHT22;60446;50.752;4.352;2023-11-18T05:48:56;6.20;99.90
72440;DHT22;60446;50.752;4.352;2023-11-18T05:51:25;6.20;99.90
72440;DHT22;60446;50.752;4.352;2023-11-18T05:53:53;6.20;99.90
72440;DHT22;60446;50.752;4.352;2023-11-18T05:56:22;6.30;99.90
72440;DHT22;60446;50.752;4.352;2023-11-18T05:58:52;6.30;99.90
72440;DHT22;60446;50.752;4.352;2023-11-18T06:01:23;6.30;99.90
72440;DHT22;60446;50.752;4.352;2023-11-18T06:03:51;6.20;99.90
72440;DHT22;60446;50.752;4.352;2023-11-18T06:06:19;6.30;99.90
72440;DHT22;60446;50.752;4.352;2023-11-18T06:08:51;6.40;99.90
72440;DHT22;60446;50.752;4.352;2023-11-18T06:11:19;6.30;99.90
72440;DHT22;60446;50.752;4.352;2023-11-18T06:13:48;6.30;99.90
72440;DHT22;60446;50.752;4.352;2023-11-18T06:16:24;6.40;99.90
72440;DHT22;60446;50.752;4.352;2023-11-18T06:18:53;6.40;99.90
72440;DHT22;60446;50.752;4.352;2023-11-18T06:21:24;6.40;99.90
72440;DHT22;60446;50.752;4.352;2023-11-18T06:23:55;6.40;99.90
72440;DHT22;60446;50.752;4.352;2023-11-18T06:26:23;6.40;99.90
72440;DHT22;60446;50.752;4.352;2023-11-18T06:28:54;6.50;99.90
72440;DHT22;60446;50.752;4.352;2023-11-18T06:31:23;6.50;99.90
72440;DHT22;60446;50.752;4.352;2023-11-18T06:33:51;6.50;99.90
72440;DHT22;60446;50.752;4.352;2023-11-18T06:36:20;6.60;99.90
72440;DHT22;60446;50.752;4.352;2023-11-18T06:38:52;6.60;99.90
72440;DHT22;60446;50.752;4.352;2023-11-18T06:41:21;6.60;99.90
72440;DHT22;60446;50.752;4.352;2023-11-18T06:44:05;6.60;99.90
72440;DHT22;60446;50.752;4.352;2023-11-18T06:46:44;6.70;99.90
72440;DHT22;60446;50.752;4.352;2023-11-18T06:49:11;6.70;99.90
72440;DHT22;60446;50.752;4.352;2023-11-18T06:51:42;6.70;99.90
72440;DHT22;60446;50.752;4.352;2023-11-18T06:54:09;6.70;99.90
72440;DHT22;60446;50.752;4.352;2023-11-18T06:56:41;6.70;99.90
72440;DHT22;60446;50.752;4.352;2023-11-18T06:59:11;6.80;99.90
72440;DHT22;60446;50.752;4.352;2023-11-18T07:01:41;6.80;99.90
72440;DHT22;60446;50.752;4.352;2023-11-18T07:04:13;6.80;99.90
72440;DHT22;60446;50.752;4.352;2023-11-18T07:06:43;6.80;99.90
72440;DHT22;60446;50.752;4.352;2023-11-18T07:09:12;6.80;99.90
72440;DHT22;60446;50.752;4.352;2023-11-18T07:11:41;6.80;99.90
72440;DHT22;60446;50.752;4.352;2023-11-18T07:14:09;6.80;99.90
72440;DHT22;60446;50.752;4.352;2023-11-18T07:16:41;6.90;99.90
72440;DHT22;60446;50.752;4.352;2023-11-18T07:19:09;6.80;99.90
72440;DHT22;60446;50.752;4.352;2023-11-18T07:21:48;6.80;99.90
72440;DHT22;60446;50.752;4.352;2023-11-18T07:24:16;6.80;99.90
72440;DHT22;60446;50.752;4.352;2023-11-18T07:26:47;6.80;99.90
72440;DHT22;60446;50.752;4.352;2023-11-18T07:29:16;6.80;99.90
72440;DHT22;60446;50.752;4.352;2023-11-18T07:31:44;6.80;99.90
72440;DHT22;60446;50.752;4.352;2023-11-18T07:34:12;6.80;99.90
72440;DHT22;60446;50.752;4.352;2023-11-18T07:36:39;6.80;99.90
72440;DHT22;60446;50.752;4.352;2023-11-18T07:39:06;6.70;99.90
72440;DHT22;60446;50.752;4.352;2023-11-18T07:41:42;6.70;99.90
72440;DHT22;60446;50.752;4.352;2023-11-18T07:44:10;6.70;99.90
72440;DHT22;60446;50.752;4.352;2023-11-18T07:46:40;6.70;99.90
72440;DHT22;60446;50.752;4.352;2023-11-18T07:49:09;6.80;99.90
72440;DHT22;60446;50.752;4.352;2023-11-18T07:51:38;6.80;99.90
72440;DHT22;60446;50.752;4.352;2023-11-18T07:54:07;6.70;99.90
72440;DHT22;60446;50.752;4.352;2023-11-18T07:56:37;6.70;99.90
72440;DHT22;60446;50.752;4.352;2023-11-18T07:59:04;6.70;99.90
72440;DHT22;60446;50.752;4.352;2023-11-18T08:01:35;6.70;99.90
72440;DHT22;60446;50.752;4.352;2023-11-18T08:04:02;6.70;99.90
72440;DHT22;60446;50.752;4.352;2023-11-18T08:06:33;6.70;99.90
72440;DHT22;60446;50.752;4.352;2023-11-18T08:09:00;6.70;99.90
72440;DHT22;60446;50.752;4.352;2023-11-18T08:11:27;6.70;99.90
72440;DHT22;60446;50.752;4.352;2023-11-18T08:13:56;6.70;99.90
72440;DHT22;60446;50.752;4.352;2023-11-18T08:16:23;6.60;99.90
72440;DHT22;60446;50.752;4.352;2023-11-18T08:18:51;6.70;99.90
72440;DHT22;60446;50.752;4.352;2023-11-18T08:21:19;6.70;99.90
72440;DHT22;60446;50.752;4.352;2023-11-18T08:23:46;6.70;99.90
72440;DHT22;60446;50.752;4.352;2023-11-18T08:26:14;6.80;99.90
72440;DHT22;60446;50.752;4.352;2023-11-18T08:28:41;6.80;99.90
72440;DHT22;60446;50.752;4.352;2023-11-18T08:31:09;6.80;99.90
72440;DHT22;60446;50.752;4.352;2023-11-18T08:33:36;6.80;99.90
72440;DHT22;60446;50.752;4.352;2023-11-18T08:36:03;6.80;99.90
72440;DHT22;60446;50.752;4.352;2023-11-18T08:38:31;6.80;99.90
72440;DHT22;60446;50.752;4.352;2023-11-18T08:40:58;6.80;99.90
72440;DHT22;60446;50.752;4.352;2023-11-18T08:43:26;6.80;99.90
72440;DHT22;60446;50.752;4.352;2023-11-18T08:45:57;6.90;99.90
72440;DHT22;60446;50.752;4.352;2023-11-18T08:48:24;6.90;99.90
72440;DHT22;60446;50.752;4.352;2023-11-18T08:50:51;6.90;99.90
72440;DHT22;60446;50.752;4.352;2023-11-18T08:53:18;7.00;99.90
72440;DHT22;60446;50.752;4.352;2023-11-18T08:55:53;7.00;99.90
72440;DHT22;60446;50.752;4.352;2023-11-18T08:58:22;7.00;99.90
72440;DHT22;60446;50.752;4.352;2023-11-18T09:00:51;7.00;99.90
72440;DHT22;60446;50.752;4.352;2023-11-18T09:03:25;7.00;99.90
72440;DHT22;60446;50.752;4.352;2023-11-18T09:06:09;7.00;99.90
72440;DHT22;60446;50.752;4.352;2023-11-18T09:08:46;7.10;99.90
72440;DHT22;60446;50.752;4.352;2023-11-18T09:11:23;7.10;99.90
72440;DHT22;60446;50.752;4.352;2023-11-18T09:13:54;7.10;99.90
72440;DHT22;60446;50.752;4.352;2023-11-18T09:16:24;7.20;99.90
72440;DHT22;60446;50.752;4.352;2023-11-18T09:18:58;7.10;99.90
72440;DHT22;60446;50.752;4.352;2023-11-18T09:21:26;7.10;99.90
72440;DHT22;60446;50.752;4.352;2023-11-18T09:23:57;7.10;99.90
72440;DHT22;60446;50.752;4.352;2023-11-18T09:26:24;7.10;99.90
72440;DHT22;60446;50.752;4.352;2023-11-18T09:28:53;7.00;99.90
72440;DHT22;60446;50.752;4.352;2023-11-18T09:31:20;7.00;99.90
72440;DHT22;60446;50.752;4.352;2023-11-18T09:33:48;7.10;99.90
72440;DHT22;60446;50.752;4.352;2023-11-18T09:36:20;7.10;99.90
72440;DHT22;60446;50.752;4.352;2023-11-18T09:38:50;7.10;99.90
72440;DHT22;60446;50.752;4.352;2023-11-18T09:41:17;7.10;99.90
72440;DHT22;60446;50.752;4.352;2023-11-18T09:43:46;7.10;99.90
72440;DHT22;60446;50.752;4.352;2023-11-18T09:46:22;7.10;99.90
72440;DHT22;60446;50.752;4.352;2023-11-18T09:48:53;7.10;99.90
72440;DHT22;60446;50.752;4.352;2023-11-18T09:51:43;7.10;99.90
72440;DHT22;60446;50.752;4.352;2023-11-18T09:54:27;7.10;99.90
72440;DHT22;60446;50.752;4.352;2023-11-18T09:57:08;7.10;99.90
72440;DHT22;60446;50.752;4.352;2023-11-18T10:00:07;7.10;99.90
72440;DHT22;60446;50.752;4.352;2023-11-18T10:02:48;7.10;99.90
72440;DHT22;60446;50.752;4.352;2023-11-18T10:05:22;7.20;99.90
72440;DHT22;60446;50.752;4.352;2023-11-18T10:07:54;7.20;99.90
72440;DHT22;60446;50.752;4.352;2023-11-18T10:10:24;7.20;99.90
72440;DHT22;60446;50.752;4.352;2023-11-18T10:12:53;7.20;99.90
72440;DHT22;60446;50.752;4.352;2023-11-18T10:15:25;7.20;99.90
72440;DHT22;60446;50.752;4.352;2023-11-18T10:17:54;7.20;99.90
72440;DHT22;60446;50.752;4.352;2023-11-18T10:23:29;7.30;99.90
72440;DHT22;60446;50.752;4.352;2023-11-18T10:26:00;7.30;99.90
72440;DHT22;60446;50.752;4.352;2023-11-18T10:28:35;7.30;99.90
72440;DHT22;60446;50.752;4.352;2023-11-18T10:31:07;7.40;99.90
72440;DHT22;60446;50.752;4.352;2023-11-18T10:33:41;7.40;99.90
72440;DHT22;60446;50.752;4.352;2023-11-18T10:36:20;7.40;99.90
72440;DHT22;60446;50.752;4.352;2023-11-18T10:38:51;7.40;99.90
72440;DHT22;60446;50.752;4.352;2023-11-18T10:41:22;7.50;99.90
72440;DHT22;60446;50.752;4.352;2023-11-18T10:44:05;7.50;99.90
72440;DHT22;60446;50.752;4.352;2023-11-18T10:46:50;7.50;99.90
72440;DHT22;60446;50.752;4.352;2023-11-18T10:49:23;7.50;99.90
72440;DHT22;60446;50.752;4.352;2023-11-18T10:51:51;7.50;99.90
72440;DHT22;60446;50.752;4.352;2023-11-18T10:54:19;7.50;99.90
72440;DHT22;60446;50.752;4.352;2023-11-18T10:56:49;7.50;99.90
72440;DHT22;60446;50.752;4.352;2023-11-18T10:59:16;7.50;99.90
72440;DHT22;60446;50.752;4.352;2023-11-18T11:01:45;7.50;99.90
72440;DHT22;60446;50.752;4.352;2023-11-18T11:04:16;7.50;99.90
72440;DHT22;60446;50.752;4.352;2023-11-18T11:06:48;7.60;99.90
72440;DHT22;60446;50.752;4.352;2023-11-18T11:09:21;7.60;99.90
72440;DHT22;60446;50.752;4.352;2023-11-18T11:12:10;7.60;99.90
72440;DHT22;60446;50.752;4.352;2023-11-18T11:14:52;7.60;99.90
72440;DHT22;60446;50.752;4.352;2023-11-18T11:17:27;7.60;99.90
72440;DHT22;60446;50.752;4.352;2023-11-18T11:20:07;7.60;99.90
72440;DHT22;60446;50.752;4.352;2023-11-18T11:26:13;7.60;99.90
72440;DHT22;60446;50.752;4.352;2023-11-18T11:29:29;7.60;99.90
72440;DHT22;60446;50.752;4.352;2023-11-18T11:32:16;7.60;99.90
72440;DHT22;60446;50.752;4.352;2023-11-18T11:34:55;7.60;99.90
72440;DHT22;60446;50.752;4.352;2023-11-18T11:37:25;7.70;99.90
72440;DHT22;60446;50.752;4.352;2023-11-18T11:39:57;7.70;99.90
72440;DHT22;60446;50.752;4.352;2023-11-18T11:42:26;7.70;99.90
72440;DHT22;60446;50.752;4.352;2023-11-18T11:44:54;7.70;99.90
72440;DHT22;60446;50.752;4.352;2023-11-18T11:47:22;7.70;99.90
72440;DHT22;60446;50.752;4.352;2023-11-18T11:50:11;7.70;99.90
72440;DHT22;60446;50.752;4.352;2023-11-18T11:52:46;7.80;99.90
72440;DHT22;60446;50.752;4.352;2023-11-18T11:55:33;7.80;99.90
72440;DHT22;60446;50.752;4.352;2023-11-18T11:58:25;7.80;99.90
72440;DHT22;60446;50.752;4.352;2023-11-18T12:01:01;7.80;99.90
72440;DHT22;60446;50.752;4.352;2023-11-18T12:03:41;7.80;99.90
72440;DHT22;60446;50.752;4.352;2023-11-18T12:06:12;7.80;99.90
72440;DHT22;60446;50.752;4.352;2023-11-18T12:08:43;7.90;99.90
72440;DHT22;60446;50.752;4.352;2023-11-18T12:11:12;7.90;99.90
72440;DHT22;60446;50.752;4.352;2023-11-18T12:13:39;7.90;99.90
72440;DHT22;60446;50.752;4.352;2023-11-18T12:16:07;7.90;99.90
72440;DHT22;60446;50.752;4.352;2023-11-18T12:18:37;7.90;99.90
72440;DHT22;60446;50.752;4.352;2023-11-18T12:21:04;7.90;99.90
72440;DHT22;60446;50.752;4.352;2023-11-18T12:23:32;7.90;99.90
72440;DHT22;60446;50.752;4.352;2023-11-18T12:26:02;7.90;99.90
72440;DHT22;60446;50.752;4.352;2023-11-18T12:28:31;7.90;99.90
72440;DHT22;60446;50.752;4.352;2023-11-18T12:31:03;7.90;99.90
72440;DHT22;60446;50.752;4.352;2023-11-18T12:43:18;8.00;99.90
72440;DHT22;60446;50.752;4.352;2023-11-18T12:45:57;8.00;99.90
72440;DHT22;60446;50.752;4.352;2023-11-18T12:48:44;8.00;99.90
72440;DHT22;60446;50.752;4.352;2023-11-18T12:51:13;8.00;99.90
72440;DHT22;60446;50.752;4.352;2023-11-18T12:53:49;8.00;99.90
72440;DHT22;60446;50.752;4.352;2023-11-18T12:56:20;8.00;99.90
72440;DHT22;60446;50.752;4.352;2023-11-18T12:58:50;8.10;99.90
72440;DHT22;60446;50.752;4.352;2023-11-18T13:01:18;8.00;99.90
72440;DHT22;60446;50.752;4.352;2023-11-18T13:03:46;8.10;99.90
72440;DHT22;60446;50.752;4.352;2023-11-18T13:06:14;8.10;99.90
72440;DHT22;60446;50.752;4.352;2023-11-18T13:08:42;8.10;99.90
72440;DHT22;60446;50.752;4.352;2023-11-18T13:11:09;8.10;99.90
72440;DHT22;60446;50.752;4.352;2023-11-18T13:13:43;8.10;99.90
72440;DHT22;60446;50.752;4.352;2023-11-18T13:16:10;8.10;99.90
72440;DHT22;60446;50.752;4.352;2023-11-18T13:18:44;8.10;99.90
72440;DHT22;60446;50.752;4.352;2023-11-18T13:21:17;8.10;99.90
72440;DHT22;60446;50.752;4.352;2023-11-18T13:23:51;8.20;99.90
72440;DHT22;60446;50.752;4.352;2023-11-18T13:26:20;8.20;99.90
72440;DHT22;60446;50.752;4.352;2023-11-18T13:28:48;8.20;99.90
72440;DHT22;60446;50.752;4.352;2023-11-18T13:31:17;8.20;99.90
72440;DHT22;60446;50.752;4.352;2023-11-18T13:33:47;8.30;99.90
72440;DHT22;60446;50.752;4.352;2023-11-18T13:36:16;8.30;99.90
72440;DHT22;60446;50.752;4.352;2023-11-18T13:38:48;8.30;99.90
72440;DHT22;60446;50.752;4.352;2023-11-18T13:41:34;8.30;99.90
72440;DHT22;60446;50.752;4.352;2023-11-18T13:44:03;8.30;99.90
72440;DHT22;60446;50.752;4.352;2023-11-18T13:46:30;8.30;99.90
72440;DHT22;60446;50.752;4.352;2023-11-18T13:48:58;8.30;99.90
72440;DHT22;60446;50.752;4.352;2023-11-18T13:51:26;8.30;99.90
72440;DHT22;60446;50.752;4.352;2023-11-18T13:53:53;8.30;99.90
72440;DHT22;60446;50.752;4.352;2023-11-18T13:56:21;8.40;99.90
72440;DHT22;60446;50.752;4.352;2023-11-18T13:58:52;8.40;99.90
72440;DHT22;60446;50.752;4.352;2023-11-18T14:01:20;8.40;99.90
72440;DHT22;60446;50.752;4.352;2023-11-18T14:03:48;8.40;99.90
72440;DHT22;60446;50.752;4.352;2023-11-18T14:06:15;8.40;99.90
72440;DHT22;60446;50.752;4.352;2023-11-18T14:08:44;8.40;99.90
72440;DHT22;60446;50.752;4.352;2023-11-18T14:11:11;8.40;99.90
72440;DHT22;60446;50.752;4.352;2023-11-18T14:13:44;8.40;99.90
72440;DHT22;60446;50.752;4.352;2023-11-18T14:16:11;8.40;99.90
72440;DHT22;60446;50.752;4.352;2023-11-18T14:18:40;8.50;99.90
72440;DHT22;60446;50.752;4.352;2023-11-18T14:21:09;8.50;99.90
72440;DHT22;60446;50.752;4.352;2023-11-18T14:23:36;8.50;99.90
72440;DHT22;60446;50.752;4.352;2023-11-18T14:26:05;8.50;99.90
72440;DHT22;60446;50.752;4.352;2023-11-18T14:28:37;8.50;99.90
72440;DHT22;60446;50.752;4.352;2023-11-18T14:31:04;8.60;99.90
72440;DHT22;60446;50.752;4.352;2023-11-18T14:33:35;8.60;99.90
72440;DHT22;60446;50.752;4.352;2023-11-18T14:36:02;8.60;99.90
72440;DHT22;60446;50.752;4.352;2023-11-18T14:38:33;8.60;99.90
72440;DHT22;60446;50.752;4.352;2023-11-18T14:41:01;8.60;99.90
72440;DHT22;60446;50.752;4.352;2023-11-18T14:43:30;8.60;99.90
72440;DHT22;60446;50.752;4.352;2023-11-18T14:45:57;8.60;99.90
72440;DHT22;60446;50.752;4.352;2023-11-18T14:48:24;8.60;99.90
72440;DHT22;60446;50.752;4.352;2023-11-18T14:50:52;8.70;99.90
72440;DHT22;60446;50.752;4.352;2023-11-18T14:53:19;8.70;99.90
72440;DHT22;60446;50.752;4.352;2023-11-18T14:55:46;8.70;99.90
72440;DHT22;60446;50.752;4.352;2023-11-18T14:58:13;8.80;99.90
72440;DHT22;60446;50.752;4.352;2023-11-18T15:00:41;8.80;99.90
72440;DHT22;60446;50.752;4.352;2023-11-18T15:03:09;8.80;99.90
72440;DHT22;60446;50.752;4.352;2023-11-18T15:05:37;8.80;99.90
72440;DHT22;60446;50.752;4.352;2023-11-18T15:08:05;8.80;99.90
72440;DHT22;60446;50.752;4.352;2023-11-18T15:10:36;8.80;99.90
72440;DHT22;60446;50.752;4.352;2023-11-18T15:13:04;8.80;99.90
72440;DHT22;60446;50.752;4.352;2023-11-18T15:15:32;8.90;99.90
72440;DHT22;60446;50.752;4.352;2023-11-18T15:18:04;8.90;99.90
72440;DHT22;60446;50.752;4.352;2023-11-18T15:20:35;8.90;99.90
72440;DHT22;60446;50.752;4.352;2023-11-18T15:23:03;8.90;99.90
72440;DHT22;60446;50.752;4.352;2023-11-18T15:25:31;9.00;99.90
72440;DHT22;60446;50.752;4.352;2023-11-18T15:27:58;9.00;99.90
72440;DHT22;60446;50.752;4.352;2023-11-18T15:30:26;9.00;99.90
72440;DHT22;60446;50.752;4.352;2023-11-18T15:32:54;9.00;99.90
72440;DHT22;60446;50.752;4.352;2023-11-18T15:35:23;9.00;99.90
72440;DHT22;60446;50.752;4.352;2023-11-18T15:37:50;9.10;99.90
72440;DHT22;60446;50.752;4.352;2023-11-18T15:40:19;9.10;99.90
72440;DHT22;60446;50.752;4.352;2023-11-18T15:42:48;9.10;99.90
72440;DHT22;60446;50.752;4.352;2023-11-18T15:45:18;9.10;99.90
72440;DHT22;60446;50.752;4.352;2023-11-18T15:47:46;9.10;99.90
72440;DHT22;60446;50.752;4.352;2023-11-18T15:50:16;9.10;99.90
72440;DHT22;60446;50.752;4.352;2023-11-18T15:52:45;9.20;99.90
72440;DHT22;60446;50.752;4.352;2023-11-18T15:55:15;9.10;99.90
72440;DHT22;60446;50.752;4.352;2023-11-18T15:57:51;9.20;99.90
72440;DHT22;60446;50.752;4.352;2023-11-18T16:00:24;9.30;99.90
72440;DHT22;60446;50.752;4.352;2023-11-18T16:02:56;9.20;99.90
72440;DHT22;60446;50.752;4.352;2023-11-18T16:05:28;9.30;99.90
72440;DHT22;60446;50.752;4.352;2023-11-18T16:08:02;9.30;99.90
72440;DHT22;60446;50.752;4.352;2023-11-18T16:10:31;9.30;99.90
72440;DHT22;60446;50.752;4.352;2023-11-18T16:13:00;9.30;99.90
72440;DHT22;60446;50.752;4.352;2023-11-18T16:15:30;9.30;99.90
72440;DHT22;60446;50.752;4.352;2023-11-18T16:17:59;9.40;99.90
72440;DHT22;60446;50.752;4.352;2023-11-18T16:20:29;9.40;99.90